Time;durP1;ratioP1;P1;durP2;ratioP2;P2;SDS_P1;SDS_P2;PMS_P1;PMS_P2;Temp;Humidity;BMP_temperature;BMP_pressure;BME280_temperature;BME280_humidity;BME280_pressure;Samples;Min_cycle;Max_cycle;Signal;HPM_P1;HPM_P2
2024/02/16 00:00:25;;;;;;;18.17;9.98;;;4.20;99.90;;;;;;4918458;29;20043;-68
2024/02/16 00:02:51;;;;;;;13.15;7.93;;;4.10;99.90;;;;;;4916850;29;20451;-57
2024/02/16 00:05:17;;;;;;;12.68;8.98;;;4.10;99.90;;;;;;4916842;29;20047;-59
2024/02/16 00:07:43;;;;;;;16.80;9.57;;;4.10;99.90;;;;;;4917020;29;20044;-53
2024/02/16 00:10:09;;;;;;;17.20;9.55;;;4.10;99.90;;;;;;4885380;29;20038;-63
2024/02/16 00:12:35;;;;;;;16.52;9.60;;;4.10;99.90;;;;;;4917397;29;20024;-65
2024/02/16 00:15:02;;;;;;;17.85;9.88;;;4.10;99.90;;;;;;4916935;29;20380;-61
2024/02/16 00:17:28;;;;;;;16.67;9.55;;;4.10;99.90;;;;;;4916639;29;20096;-58
2024/02/16 00:19:55;;;;;;;15.25;10.15;;;4.00;99.90;;;;;;4900844;29;20048;-71
2024/02/16 00:22:21;;;;;;;16.40;11.60;;;4.00;99.90;;;;;;4934978;29;20075;-67
2024/02/16 00:24:47;;;;;;;18.17;10.70;;;4.20;99.90;;;;;;4934992;29;20044;-57
2024/02/16 00:27:14;;;;;;;20.08;11.88;;;4.20;99.90;;;;;;4934797;29;20106;-57
2024/02/16 00:29:40;;;;;;;17.60;11.65;;;4.00;99.90;;;;;;4942913;28;20061;-62
2024/02/16 00:32:07;;;;;;;19.17;12.43;;;4.10;99.90;;;;;;4958295;28;20394;-62
2024/02/16 00:34:36;;;;;;;24.20;11.43;;;4.10;99.90;;;;;;4975711;28;20039;-56
2024/02/16 00:37:05;;;;;;;20.60;11.80;;;4.20;99.90;;;;;;4975448;28;20030;-69
2024/02/16 00:39:30;;;;;;;19.15;11.50;;;4.20;99.90;;;;;;4975236;28;20094;-72
2024/02/16 00:41:56;;;;;;;18.35;12.88;;;4.30;99.90;;;;;;4953932;29;20039;-59
2024/02/16 00:44:23;;;;;;;23.33;13.55;;;;;;;;;;4905884;29;20114;-59
2024/02/16 00:46:49;;;;;;;25.08;14.52;;;4.50;99.90;;;;;;4952699;29;20118;-63
2024/02/16 00:49:15;;;;;;;23.83;15.50;;;4.50;99.90;;;;;;4952482;28;20474;-71
2024/02/16 00:51:40;;;;;;;22.35;15.07;;;4.50;99.90;;;;;;4955094;29;20039;-56
2024/02/16 00:54:06;;;;;;;22.92;14.05;;;4.50;99.90;;;;;;4955742;29;20055;-61
2024/02/16 00:56:35;;;;;;;19.30;11.85;;;4.50;99.90;;;;;;4956607;29;20047;-54
2024/02/16 00:59:01;;;;;;;24.45;11.60;;;4.40;99.90;;;;;;4956150;29;20035;-71
2024/02/16 01:01:27;;;;;;;18.08;11.77;;;4.40;99.90;;;;;;4956060;29;20126;-61
2024/02/16 01:03:53;;;;;;;16.25;10.20;;;4.50;99.90;;;;;;4955344;29;20476;-58
2024/02/16 01:06:19;;;;;;;16.52;10.82;;;4.50;99.90;;;;;;4923381;29;20050;-59
2024/02/16 01:08:46;;;;;;;18.88;9.77;;;4.50;99.90;;;;;;4955927;29;20035;-63
2024/02/16 01:11:12;;;;;;;19.73;10.10;;;4.10;99.90;;;;;;4955931;29;20039;-68
2024/02/16 01:13:42;;;;;;;15.00;11.10;;;4.10;99.90;;;;;;4964688;28;20039;-61
2024/02/16 01:16:09;;;;;;;22.38;9.77;;;4.30;99.90;;;;;;4958847;28;20402;-56
2024/02/16 01:18:37;;;;;;;15.75;9.95;;;;;;;;;;4976400;28;20038;-54
2024/02/16 01:21:03;;;;;;;17.13;10.55;;;4.30;99.90;;;;;;4977007;28;20042;-65
2024/02/16 01:23:29;;;;;;;19.20;10.85;;;4.40;99.90;;;;;;4976814;28;20042;-65
2024/02/16 01:25:55;;;;;;;15.98;10.85;;;4.20;99.90;;;;;;4976600;28;20545;-62
2024/02/16 01:28:21;;;;;;;15.75;9.82;;;4.30;99.90;;;;;;4976499;28;20130;-64
2024/02/16 01:30:47;;;;;;;18.75;9.75;;;4.20;99.90;;;;;;4976596;28;20410;-59
2024/02/16 01:33:13;;;;;;;16.60;9.95;;;4.10;99.90;;;;;;4976694;28;20047;-57
2024/02/16 01:35:39;;;;;;;16.65;10.43;;;4.10;99.90;;;;;;4976408;28;20034;-55
2024/02/16 01:38:05;;;;;;;17.60;10.30;;;4.10;99.90;;;;;;4976374;28;20081;-66
2024/02/16 01:40:31;;;;;;;16.35;9.90;;;4.30;99.90;;;;;;4926305;28;20046;-68
2024/02/16 01:42:57;;;;;;;17.48;11.13;;;;;;;;;;4976139;28;20046;-62
2024/02/16 01:45:24;;;;;;;18.02;10.93;;;;;;;;;;4976429;28;20042;-73
2024/02/16 01:47:51;;;;;;;15.88;10.00;;;;;;;;;;4976169;28;20038;-61
2024/02/16 01:50:18;;;;;;;13.32;9.02;;;;;;;;;;4976132;28;20027;-58
2024/02/16 01:52:45;;;;;;;12.52;8.73;;;;;;;;;;4976082;28;20035;-68
2024/02/16 01:55:12;;;;;;;12.15;8.00;;;;;;;;;;4972431;28;20065;-57
2024/02/16 01:57:43;;;;;;;12.25;8.85;;;;;;;;;;4995665;28;20058;-60
2024/02/16 02:00:09;;;;;;;15.30;9.35;;;4.90;99.90;;;;;;4995412;28;20085;-66
2024/02/16 02:02:36;;;;;;;14.38;8.88;;;5.00;99.90;;;;;;4960940;28;20050;-67
2024/02/16 02:05:02;;;;;;;14.82;9.25;;;;;;;;;;4995012;28;20045;-62
2024/02/16 02:07:28;;;;;;;18.52;9.80;;;;;;;;;;4995052;28;20068;-67
2024/02/16 02:09:54;;;;;;;13.20;8.73;;;;;;;;;;4994930;28;20501;-60
2024/02/16 02:12:22;;;;;;;13.77;9.48;;;;;;;;;;4995543;28;20030;-60
2024/02/16 02:14:48;;;;;;;12.63;8.30;;;;;;;;;;4995367;28;20034;-61
2024/02/16 02:17:14;;;;;;;14.77;10.00;;;;;;;;;;4994877;28;20033;-68
2024/02/16 02:19:40;;;;;;;14.73;9.38;;;;;;;;;;4944819;28;20074;-64
2024/02/16 02:22:19;;;;;;;13.68;9.43;;;;;;;;;;4995369;28;20026;-65
2024/02/16 02:24:45;;;;;;;14.23;9.20;;;;;;;;;;4985641;28;20042;-66
2024/02/16 02:27:12;;;;;;;18.10;8.88;;;;;;;;;;4975764;28;20047;-74
2024/02/16 02:29:40;;;;;;;13.80;8.18;;;4.10;99.90;;;;;;4975609;28;20031;-65
2024/02/16 02:32:06;;;;;;;11.65;7.32;;;;;;;;;;4975012;28;20027;-58
2024/02/16 02:34:32;;;;;;;11.88;7.80;;;;;;;;;;4957583;28;20051;-65
2024/02/16 02:36:58;;;;;;;13.50;7.72;;;;;;;;;;4975960;28;20034;-57
2024/02/16 02:39:24;;;;;;;13.55;7.05;;;3.80;99.90;;;;;;4975117;28;20053;-65
2024/02/16 02:41:50;;;;;;;11.82;7.00;;;3.50;99.90;;;;;;4975899;28;20466;-56
2024/02/16 02:44:15;;;;;;;13.20;7.85;;;3.30;99.90;;;;;;4975350;28;20498;-61
2024/02/16 02:46:41;;;;;;;12.40;7.68;;;3.30;99.90;;;;;;4974809;28;20033;-65
2024/02/16 02:49:08;;;;;;;13.27;8.30;;;3.50;99.90;;;;;;4974349;28;20058;-58
2024/02/16 02:51:34;;;;;;;12.88;8.60;;;3.40;99.90;;;;;;4965849;28;20050;-65
2024/02/16 02:53:59;;;;;;;15.27;8.70;;;3.40;99.90;;;;;;4993857;28;20065;-60
2024/02/16 02:56:25;;;;;;;11.07;8.15;;;3.50;99.90;;;;;;4993985;28;20030;-59
2024/02/16 02:58:51;;;;;;;12.57;8.63;;;3.70;99.90;;;;;;4943714;28;20066;-64
2024/02/16 03:01:19;;;;;;;14.75;8.02;;;3.60;99.90;;;;;;4943900;28;20034;-67
2024/02/16 03:03:46;;;;;;;14.45;9.32;;;3.40;99.90;;;;;;4993810;28;20097;-60
2024/02/16 03:06:13;;;;;;;16.50;10.98;;;3.50;99.90;;;;;;4975704;28;20069;-65
2024/02/16 03:08:39;;;;;;;15.02;9.50;;;3.50;99.90;;;;;;4993843;28;20026;-63
2024/02/16 03:11:05;;;;;;;16.52;8.80;;;3.70;99.90;;;;;;4993596;28;20437;-63
2024/02/16 03:13:33;;;;;;;12.20;8.60;;;3.80;99.90;;;;;;4993249;28;20040;-65
2024/02/16 03:15:58;;;;;;;12.90;8.35;;;4.00;99.90;;;;;;4993532;28;20056;-58
2024/02/16 03:18:24;;;;;;;14.90;8.48;;;4.10;99.90;;;;;;4993577;28;20478;-59
2024/02/16 03:20:50;;;;;;;11.52;8.43;;;4.20;99.90;;;;;;4993588;28;20026;-61
2024/02/16 03:23:16;;;;;;;13.30;8.02;;;4.20;99.90;;;;;;4991616;28;20044;-65
2024/02/16 03:25:42;;;;;;;11.40;8.13;;;4.30;99.90;;;;;;4993917;28;20030;-62
2024/02/16 03:28:14;;;;;;;10.93;6.80;;;4.00;99.90;;;;;;4993782;28;20424;-63
2024/02/16 03:30:40;;;;;;;13.18;7.55;;;3.80;99.90;;;;;;4991610;28;20087;-67
2024/02/16 03:33:05;;;;;;;13.68;8.40;;;3.60;99.90;;;;;;4994097;28;20030;-68
2024/02/16 03:35:32;;;;;;;10.55;7.38;;;;;;;;;;4993626;28;20035;-65
2024/02/16 03:37:57;;;;;;;16.30;8.68;;;4.10;99.90;;;;;;4943793;28;20038;-61
2024/02/16 03:40:24;;;;;;;14.60;9.55;;;3.90;99.90;;;;;;4993459;28;20037;-68
2024/02/16 03:42:51;;;;;;;19.88;9.55;;;4.10;99.90;;;;;;4958890;28;20038;-60
2024/02/16 03:45:17;;;;;;;13.30;9.15;;;4.10;99.90;;;;;;4993619;28;20034;-58
2024/02/16 03:47:43;;;;;;;13.00;8.18;;;4.30;99.90;;;;;;4993327;28;20034;-63
2024/02/16 03:50:09;;;;;;;14.80;9.43;;;4.30;99.90;;;;;;4952675;29;20490;-67
2024/02/16 03:52:35;;;;;;;13.70;10.00;;;4.30;99.90;;;;;;4936638;29;20035;-68
2024/02/16 03:55:01;;;;;;;15.20;9.30;;;4.30;99.90;;;;;;4952239;29;20066;-62
2024/02/16 03:57:27;;;;;;;16.92;9.43;;;;;;;;;;4952443;29;20890;-66
2024/02/16 03:59:53;;;;;;;14.82;9.88;;;3.90;99.90;;;;;;4952714;29;20132;-65
2024/02/16 04:02:18;;;;;;;15.85;9.65;;;3.70;99.90;;;;;;4889355;29;20042;-62
2024/02/16 04:04:45;;;;;;;16.00;9.25;;;3.60;99.90;;;;;;4952392;29;20043;-61
2024/02/16 04:07:10;;;;;;;14.18;9.40;;;3.50;99.90;;;;;;4952544;29;20114;-61
2024/02/16 04:09:36;;;;;;;17.75;9.02;;;3.40;99.90;;;;;;4952350;29;20123;-60
2024/02/16 04:12:03;;;;;;;14.85;9.60;;;3.30;99.90;;;;;;4952444;29;20411;-69
2024/02/16 04:14:33;;;;;;;11.82;9.48;;;3.30;99.90;;;;;;4936489;29;20487;-60
2024/02/16 04:16:59;;;;;;;14.43;9.30;;;3.50;99.90;;;;;;4936516;29;20043;-60
2024/02/16 04:19:29;;;;;;;13.20;8.43;;;3.50;99.90;;;;;;4936518;29;20394;-61
2024/02/16 04:21:55;;;;;;;14.85;7.95;;;;;;;;;;4950490;29;20065;-64
2024/02/16 04:24:21;;;;;;;15.73;8.75;;;4.10;99.90;;;;;;4954020;28;20125;-66
2024/02/16 04:26:47;;;;;;;16.10;9.27;;;4.00;99.90;;;;;;4957906;28;20032;-61
2024/02/16 04:29:13;;;;;;;13.27;8.50;;;3.90;99.90;;;;;;4958251;28;20027;-59
2024/02/16 04:31:40;;;;;;;12.68;8.32;;;3.60;99.90;;;;;;4958197;28;20027;-69
2024/02/16 04:34:06;;;;;;;13.18;8.25;;;3.50;99.90;;;;;;4958169;28;20423;-65
2024/02/16 04:36:32;;;;;;;16.77;8.40;;;3.50;99.90;;;;;;4958195;28;20027;-66
2024/02/16 04:38:57;;;;;;;12.63;8.30;;;3.40;99.90;;;;;;4958170;28;20043;-64
2024/02/16 04:41:23;;;;;;;12.57;8.88;;;3.60;99.90;;;;;;4958031;28;20027;-61
2024/02/16 04:43:49;;;;;;;15.70;8.65;;;;;;;;;;4958045;28;20034;-64
2024/02/16 04:46:15;;;;;;;14.48;8.52;;;4.10;99.90;;;;;;4958200;29;20038;-63
2024/02/16 04:48:42;;;;;;;14.10;9.35;;;4.10;99.90;;;;;;4957939;28;20035;-61
2024/02/16 04:51:07;;;;;;;12.85;8.40;;;4.00;99.90;;;;;;4957941;28;20034;-65
2024/02/16 04:53:33;;;;;;;14.93;9.10;;;4.10;99.90;;;;;;4959065;28;20031;-62
2024/02/16 04:55:59;;;;;;;13.05;9.35;;;4.10;99.90;;;;;;4976854;28;20026;-61
2024/02/16 04:58:25;;;;;;;20.10;15.55;;;4.10;99.90;;;;;;4976744;28;20030;-63
2024/02/16 05:00:51;;;;;;;20.10;13.73;;;4.00;99.90;;;;;;4977664;28;20042;-65
2024/02/16 05:03:17;;;;;;;18.90;9.80;;;4.20;99.90;;;;;;4976859;28;20046;-59
2024/02/16 05:05:43;;;;;;;21.67;9.57;;;4.00;99.90;;;;;;4958916;28;20042;-63
2024/02/16 05:08:09;;;;;;;16.70;10.38;;;3.90;99.90;;;;;;4976825;28;20045;-55
2024/02/16 05:10:35;;;;;;;15.43;10.30;;;4.00;99.90;;;;;;4976803;28;20102;-63
2024/02/16 05:13:01;;;;;;;14.63;9.70;;;3.90;99.90;;;;;;4961450;28;20046;-62
2024/02/16 05:15:27;;;;;;;16.77;9.38;;;3.60;99.90;;;;;;4946780;28;20062;-57
2024/02/16 05:17:53;;;;;;;12.27;9.07;;;3.40;99.90;;;;;;4947509;28;20046;-67
2024/02/16 05:20:19;;;;;;;15.73;9.60;;;;;;;;;;4947079;28;20510;-58
2024/02/16 05:22:46;;;;;;;14.93;9.10;;;3.20;99.90;;;;;;4996620;28;20045;-67
2024/02/16 05:25:13;;;;;;;17.92;10.27;;;3.00;99.90;;;;;;4996526;28;20034;-68
2024/02/16 05:27:39;;;;;;;13.00;8.48;;;3.00;99.90;;;;;;4996060;28;20034;-63
2024/02/16 05:30:07;;;;;;;13.48;8.70;;;2.90;99.90;;;;;;4994083;28;20038;-60
2024/02/16 05:32:37;;;;;;;16.00;9.73;;;2.80;99.90;;;;;;4945987;28;20481;-64
2024/02/16 05:35:04;;;;;;;14.65;9.45;;;2.70;99.90;;;;;;4977336;28;20034;-59
2024/02/16 05:37:32;;;;;;;11.73;8.23;;;2.80;99.90;;;;;;4994988;28;20041;-66
2024/02/16 05:40:08;;;;;;;18.50;11.45;;;;;;;;;;4977102;28;20046;-62
2024/02/16 05:42:34;;;;;;;17.20;9.68;;;3.20;99.90;;;;;;4995377;28;20038;-63
2024/02/16 05:45:00;;;;;;;20.05;12.07;;;3.40;99.90;;;;;;4994933;28;20057;-72
2024/02/16 05:47:27;;;;;;;23.60;13.68;;;3.50;99.90;;;;;;4979551;28;20026;-67
2024/02/16 05:49:52;;;;;;;18.27;12.93;;;3.50;99.90;;;;;;4941093;28;20063;-58
2024/02/16 05:52:18;;;;;;;21.85;12.60;;;3.40;99.90;;;;;;4985438;28;20116;-75
2024/02/16 05:54:45;;;;;;;20.33;13.30;;;3.60;99.90;;;;;;4947341;28;20055;-63
2024/02/16 05:57:12;;;;;;;20.88;15.35;;;3.70;99.90;;;;;;4964275;28;20046;-59
2024/02/16 05:59:38;;;;;;;20.67;15.00;;;3.80;99.90;;;;;;4965929;28;20039;-69
2024/02/16 06:02:06;;;;;;;21.70;13.27;;;3.80;99.90;;;;;;4965653;28;20094;-70
2024/02/16 06:04:32;;;;;;;19.80;14.38;;;3.90;99.90;;;;;;4964000;28;20491;-61
2024/02/16 06:06:57;;;;;;;17.88;13.88;;;4.10;99.90;;;;;;4965976;28;20022;-67
2024/02/16 06:09:23;;;;;;;17.48;11.98;;;4.30;99.90;;;;;;4963065;28;20094;-72
2024/02/16 06:11:49;;;;;;;17.90;13.43;;;4.30;99.90;;;;;;4964249;28;20043;-58
2024/02/16 06:14:15;;;;;;;17.65;12.50;;;4.10;99.90;;;;;;4964506;28;20490;-55
2024/02/16 06:16:42;;;;;;;15.75;11.85;;;5.30;99.90;;;;;;4962802;28;20260;-61
2024/02/16 06:19:08;;;;;;;15.98;11.98;;;;;;;;;;4963384;28;20149;-56
2024/02/16 06:21:35;;;;;;;18.48;12.57;;;8.60;99.90;;;;;;4961507;28;20039;-59
2024/02/16 06:24:01;;;;;;;20.23;12.93;;;;;;;;;;4955194;28;20059;-60
2024/02/16 06:26:27;;;;;;;24.48;17.88;;;11.70;96.90;;;;;;4953562;29;20034;-66
2024/02/16 06:28:53;;;;;;;26.55;15.80;;;13.30;99.90;;;;;;4953017;29;20039;-57
2024/02/16 06:31:18;;;;;;;22.25;15.98;;;13.50;91.20;;;;;;4953082;28;20043;-60
2024/02/16 06:33:44;;;;;;;19.08;12.88;;;13.50;91.20;;;;;;4971733;28;20043;-61
2024/02/16 06:36:10;;;;;;;20.70;13.73;;;;;;;;;;4972616;28;20045;-55
2024/02/16 06:38:37;;;;;;;22.48;17.15;;;;;;;;;;4972536;28;20114;-62
2024/02/16 06:41:04;;;;;;;27.80;19.17;;;16.20;88.50;;;;;;4974222;28;20069;-57
2024/02/16 06:43:29;;;;;;;23.25;17.30;;;17.70;87.10;;;;;;4974628;28;20554;-61
2024/02/16 06:45:56;;;;;;;19.05;15.07;;;;;;;;;;4974612;28;20114;-62
2024/02/16 06:48:23;;;;;;;21.38;15.43;;;17.80;99.90;;;;;;4973929;28;20114;-56
2024/02/16 06:50:49;;;;;;;22.15;16.00;;;;;;;;;;4924432;28;20463;-58
2024/02/16 06:53:15;;;;;;;26.23;16.48;;;;;;;;;;4974341;28;20394;-57
2024/02/16 06:55:41;;;;;;;23.23;17.25;;;;;;;;;;4989993;28;20055;-59
2024/02/16 06:58:07;;;;;;;23.40;15.40;;;;;;;;;;4948445;28;20049;-61
2024/02/16 07:00:35;;;;;;;21.73;16.52;;;21.70;93.50;;;;;;4986258;28;20040;-62
2024/02/16 07:03:01;;;;;;;20.70;15.85;;;21.90;85.60;;;;;;4986951;28;20030;-63
2024/02/16 07:05:28;;;;;;;20.02;16.55;;;22.30;74.40;;;;;;4993760;28;20125;-62
2024/02/16 07:07:54;;;;;;;26.55;16.00;;;;;;;;;;4993570;28;20101;-55
2024/02/16 07:10:20;;;;;;;22.85;16.30;;;22.20;74.00;;;;;;4993062;28;20430;-56
2024/02/16 07:12:46;;;;;;;22.10;16.23;;;;;;;;;;4993644;28;20129;-59
2024/02/16 07:15:12;;;;;;;20.48;14.85;;;;;;;;;;4993808;28;20073;-61
2024/02/16 07:17:38;;;;;;;18.70;15.02;;;;;;;;;;4988299;28;20081;-57
2024/02/16 07:20:05;;;;;;;19.98;15.45;;;;;;;;;;4993165;28;20069;-57
2024/02/16 07:22:34;;;;;;;20.08;15.85;;;;;;;;;;4959445;28;20050;-56
2024/02/16 07:25:00;;;;;;;23.27;19.20;;;;;;;;;;4993247;28;20042;-61
2024/02/16 07:27:26;;;;;;;23.23;18.80;;;;;;;;;;4982008;28;20037;-56
2024/02/16 07:29:52;;;;;;;24.55;20.30;;;24.60;98.20;;;;;;4982691;28;20034;-60
2024/02/16 07:32:19;;;;;;;20.15;17.90;;;;;;;;;;4983732;28;20133;-57
2024/02/16 07:34:48;;;;;;;20.35;17.15;;;;;;;;;;4983874;28;20466;-59
2024/02/16 07:37:16;;;;;;;21.88;15.90;;;25.70;68.80;;;;;;4964469;28;20039;-61
2024/02/16 07:39:42;;;;;;;17.88;14.95;;;25.40;87.50;;;;;;4982008;28;20485;-60
2024/02/16 07:42:12;;;;;;;20.02;15.75;;;;;;;;;;4973529;28;20035;-62
2024/02/16 07:44:39;;;;;;;20.20;15.02;;;24.90;69.30;;;;;;4941161;28;20057;-58
2024/02/16 07:47:05;;;;;;;23.95;16.23;;;24.40;71.10;;;;;;4973586;28;20026;-60
2024/02/16 07:49:31;;;;;;;19.02;16.77;;;;;;;;;;4973671;28;20034;-53
2024/02/16 07:51:58;;;;;;;21.00;16.52;;;;;;;;;;4974332;28;20029;-57
2024/02/16 07:54:24;;;;;;;19.33;14.57;;;;;;;;;;4948739;28;20085;-60
2024/02/16 07:56:50;;;;;;;20.55;16.02;;;26.00;69.70;;;;;;4939416;28;20090;-61
2024/02/16 07:59:15;;;;;;;18.25;14.60;;;25.70;69.80;;;;;;4951631;28;20039;-58
2024/02/16 08:01:44;;;;;;;21.25;16.65;;;24.90;68.80;;;;;;4951505;29;20043;-56
2024/02/16 08:04:10;;;;;;;22.88;16.73;;;;;;;;;;4950597;29;20082;-57
2024/02/16 08:06:36;;;;;;;21.20;16.73;;;;;;;;;;4951260;29;20082;-58
2024/02/16 08:09:04;;;;;;;17.95;15.55;;;26.70;68.10;;;;;;4951198;29;20039;-59
2024/02/16 08:11:30;;;;;;;15.82;14.10;;;;;;;;;;4951095;29;20110;-54
2024/02/16 08:14:00;;;;;;;20.10;16.52;;;27.90;68.50;;;;;;4951687;29;20110;-54
2024/02/16 08:16:27;;;;;;;19.35;17.25;;;27.80;68.50;;;;;;4951851;29;20102;-54
2024/02/16 08:18:53;;;;;;;21.75;18.65;;;27.60;68.20;;;;;;4951729;29;20039;-63
2024/02/16 08:21:19;;;;;;;21.02;18.52;;;;;;;;;;4951173;29;20126;-53
2024/02/16 08:23:45;;;;;;;27.02;19.88;;;26.60;67.80;;;;;;4919818;29;20051;-55
2024/02/16 08:26:10;;;;;;;24.30;21.52;;;27.30;68.90;;;;;;4935634;29;20233;-59
2024/02/16 08:28:36;;;;;;;26.23;21.15;;;26.70;69.00;;;;;;4951709;29;20415;-55
2024/02/16 08:31:02;;;;;;;24.98;21.27;;;25.90;68.70;;;;;;4969282;28;20165;-56
2024/02/16 08:33:27;;;;;;;24.73;19.48;;;25.10;69.50;;;;;;4939096;28;20129;-56
2024/02/16 08:35:53;;;;;;;26.20;20.33;;;24.60;69.40;;;;;;4938651;28;20051;-58
2024/02/16 08:38:19;;;;;;;23.85;21.02;;;;;;;;;;4972523;28;20035;-53
2024/02/16 08:40:46;;;;;;;30.38;20.15;;;26.60;69.70;;;;;;4973159;28;20089;-56
2024/02/16 08:43:12;;;;;;;21.92;18.48;;;;;;;;;;4973998;28;20035;-55
2024/02/16 08:45:40;;;;;;;20.92;15.65;;;;;;;;;;4962667;28;20039;-54
2024/02/16 08:48:07;;;;;;;22.33;16.15;;;28.30;68.50;;;;;;4971861;28;20023;-53
2024/02/16 08:50:32;;;;;;;22.77;18.42;;;28.30;68.20;;;;;;4973776;28;20169;-56
2024/02/16 08:52:58;;;;;;;20.60;17.38;;;27.90;68.10;;;;;;4973691;28;20419;-52
2024/02/16 08:55:24;;;;;;;18.65;16.58;;;27.90;68.20;;;;;;4980490;28;20043;-54
2024/02/16 08:57:50;;;;;;;16.42;14.68;;;27.70;68.50;;;;;;4974259;28;20391;-52
2024/02/16 09:00:16;;;;;;;16.17;14.38;;;27.90;68.60;;;;;;4983847;28;20030;-55
2024/02/16 09:02:42;;;;;;;16.08;14.40;;;28.00;67.90;;;;;;4985658;28;20094;-54
2024/02/16 09:05:09;;;;;;;16.48;13.75;;;27.00;67.30;;;;;;4924042;28;20498;-53
2024/02/16 09:07:35;;;;;;;19.98;15.07;;;26.70;68.40;;;;;;4973913;28;20039;-54
2024/02/16 09:10:01;;;;;;;15.93;13.98;;;27.50;69.10;;;;;;4973976;28;20038;-52
2024/02/16 09:12:27;;;;;;;15.27;13.63;;;26.90;68.20;;;;;;4976421;28;20023;-53
2024/02/16 09:14:53;;;;;;;15.30;12.77;;;27.10;68.40;;;;;;4943722;28;20117;-51
2024/02/16 09:17:20;;;;;;;14.65;12.15;;;27.80;68.40;;;;;;4927834;28;20067;-53
2024/02/16 09:19:46;;;;;;;15.73;13.48;;;27.20;67.40;;;;;;4928302;28;20110;-53
2024/02/16 09:22:11;;;;;;;14.23;12.75;;;27.00;67.60;;;;;;4911852;28;20137;-54
2024/02/16 09:24:37;;;;;;;13.50;12.10;;;25.90;67.40;;;;;;4977166;28;20042;-53
2024/02/16 09:27:04;;;;;;;14.20;11.50;;;25.90;68.80;;;;;;4976887;28;20031;-53
2024/02/16 09:29:30;;;;;;;14.30;12.88;;;26.10;69.50;;;;;;4942993;28;20070;-52
2024/02/16 09:31:56;;;;;;;14.60;12.65;;;26.80;68.80;;;;;;4976966;28;20037;-53
2024/02/16 09:34:22;;;;;;;16.55;13.95;;;26.80;68.10;;;;;;4964051;28;20461;-55
2024/02/16 09:36:48;;;;;;;14.25;12.57;;;24.90;68.30;;;;;;4993133;28;20065;-55
2024/02/16 09:39:14;;;;;;;16.42;12.23;;;;;;;;;;4962298;28;20038;-52
2024/02/16 09:41:45;;;;;;;16.10;12.35;;;26.80;68.00;;;;;;4939476;29;20478;-51
2024/02/16 09:44:11;;;;;;;15.32;13.38;;;26.60;68.70;;;;;;4955427;29;20184;-51
2024/02/16 09:46:37;;;;;;;13.13;11.82;;;26.10;68.50;;;;;;4955642;29;20118;-57
2024/02/16 09:49:04;;;;;;;12.00;10.65;;;25.70;69.50;;;;;;4955463;29;20030;-56
2024/02/16 09:51:30;;;;;;;11.55;10.45;;;25.10;68.60;;;;;;4916812;29;20054;-53
2024/02/16 09:53:56;;;;;;;10.82;9.77;;;24.60;68.70;;;;;;4885114;29;20160;-56
2024/02/16 09:56:24;;;;;;;11.82;10.48;;;25.30;69.60;;;;;;4901281;29;20092;-55
2024/02/16 09:58:57;;;;;;;11.48;10.32;;;25.40;68.90;;;;;;4917130;29;20028;-52
2024/02/16 10:01:24;;;;;;;12.30;11.10;;;26.30;69.20;;;;;;4917142;29;20036;-56
2024/02/16 10:03:50;;;;;;;11.27;10.23;;;25.90;68.50;;;;;;4897844;29;20038;-53
2024/02/16 10:06:17;;;;;;;12.52;11.07;;;25.60;68.30;;;;;;4898108;29;20045;-52
2024/02/16 10:08:56;;;;;;;13.43;11.35;;;25.10;69.30;;;;;;4911184;29;20040;-58
2024/02/16 10:11:27;;;;;;;11.77;9.88;;;24.60;69.80;;;;;;4896078;29;20041;-53
2024/02/16 10:13:59;;;;;;;12.25;10.93;;;25.80;69.80;;;;;;4877389;29;20487;-64
2024/02/16 10:16:25;;;;;;;14.27;11.57;;;26.20;69.80;;;;;;4879251;29;20073;-50
2024/02/16 10:18:51;;;;;;;10.50;9.43;;;25.10;69.60;;;;;;4879051;29;20590;-58
2024/02/16 10:21:30;;;;;;;13.52;10.68;;;25.80;69.30;;;;;;4870054;29;20128;-54
2024/02/16 10:24:07;;;;;;;11.55;9.45;;;25.30;69.70;;;;;;4907301;29;20063;-64
2024/02/16 10:26:37;;;;;;;13.55;10.60;;;24.80;69.60;;;;;;4907398;29;20118;-56
2024/02/16 10:29:05;;;;;;;11.85;9.75;;;24.40;70.00;;;;;;4891519;29;20508;-57
2024/02/16 10:31:32;;;;;;;11.40;9.65;;;24.80;70.80;;;;;;4893093;29;20039;-56
2024/02/16 10:34:09;;;;;;;14.80;10.82;;;24.90;70.20;;;;;;4911974;29;20050;-59
2024/02/16 10:36:36;;;;;;;13.10;9.65;;;;;;;;;;4936143;29;20050;-59
2024/02/16 10:39:04;;;;;;;9.90;8.07;;;24.70;69.10;;;;;;4954039;29;20043;-59
2024/02/16 10:41:34;;;;;;;14.77;9.98;;;;;;;;;;4937688;29;20039;-59
2024/02/16 10:44:04;;;;;;;14.90;10.32;;;24.80;81.30;;;;;;4957650;28;20089;-58
2024/02/16 10:46:31;;;;;;;13.23;8.50;;;24.90;70.00;;;;;;4960676;28;20125;-59
2024/02/16 10:48:57;;;;;;;12.82;9.98;;;24.80;70.00;;;;;;4984771;28;20030;-55
2024/02/16 10:51:31;;;;;;;13.43;9.45;;;;;;;;;;4945870;28;20102;-54
2024/02/16 10:53:57;;;;;;;13.32;10.63;;;24.80;91.90;;;;;;4977901;28;20047;-51
2024/02/16 10:56:41;;;;;;;9.52;8.23;;;25.40;70.00;;;;;;4985569;28;20419;-52
2024/02/16 10:59:09;;;;;;;9.50;8.48;;;26.10;70.10;;;;;;4961736;28;20045;-54
2024/02/16 11:01:42;;;;;;;9.25;7.90;;;24.90;69.20;;;;;;4944645;28;20038;-51
2024/02/16 11:04:11;;;;;;;9.23;7.97;;;24.40;69.40;;;;;;4993593;28;20053;-54
2024/02/16 11:06:59;;;;;;;9.02;7.90;;;25.00;70.40;;;;;;4984321;28;20386;-56
2024/02/16 11:09:35;;;;;;;11.23;8.10;;;25.10;69.60;;;;;;4993604;28;20034;-49
2024/02/16 11:12:09;;;;;;;10.00;7.63;;;25.00;69.50;;;;;;4980855;28;20471;-53
2024/02/16 11:14:36;;;;;;;12.05;9.32;;;;;;;;;;4975263;28;20066;-55
2024/02/16 11:17:12;;;;;;;9.48;7.82;;;;;;;;;;4975493;28;20050;-56
2024/02/16 11:19:40;;;;;;;11.05;9.27;;;;;;;;;;4975889;28;20027;-54
2024/02/16 11:22:11;;;;;;;9.38;7.63;;;25.70;69.50;;;;;;4969354;28;20366;-60
2024/02/16 11:24:42;;;;;;;8.40;7.07;;;24.90;68.30;;;;;;4983870;28;20080;-53
2024/02/16 11:27:09;;;;;;;9.18;7.07;;;25.00;68.70;;;;;;4985169;28;20044;-52
2024/02/16 11:29:36;;;;;;;8.63;7.20;;;24.40;69.00;;;;;;4993515;28;20037;-61
2024/02/16 11:32:03;;;;;;;9.88;7.68;;;24.60;69.10;;;;;;4994284;28;20030;-59
2024/02/16 11:34:30;;;;;;;8.05;6.95;;;24.80;69.50;;;;;;4960176;28;20038;-58
2024/02/16 11:36:56;;;;;;;9.52;7.00;;;24.20;69.50;;;;;;4934261;29;20043;-58
2024/02/16 11:39:23;;;;;;;10.15;7.30;;;24.80;68.90;;;;;;4918226;29;20134;-57
2024/02/16 11:42:01;;;;;;;8.73;6.60;;;24.50;68.80;;;;;;4934103;29;20087;-57
2024/02/16 11:44:28;;;;;;;8.80;6.38;;;24.90;69.00;;;;;;4934275;29;20040;-55
2024/02/16 11:46:55;;;;;;;10.55;6.95;;;25.20;68.00;;;;;;4934007;29;20036;-58
2024/02/16 11:49:21;;;;;;;9.88;6.38;;;24.80;68.10;;;;;;4934055;29;20035;-53
2024/02/16 11:51:47;;;;;;;10.23;6.50;;;24.60;67.30;;;;;;4899175;29;20072;-58
2024/02/16 11:54:15;;;;;;;7.68;5.90;;;24.30;67.50;;;;;;4914886;29;20058;-59
2024/02/16 11:56:45;;;;;;;6.65;5.57;;;24.00;67.00;;;;;;4915088;29;20645;-58
2024/02/16 11:59:15;;;;;;;8.98;7.78;;;24.10;67.20;;;;;;4898767;29;20127;-56
2024/02/16 12:01:55;;;;;;;7.70;5.82;;;23.30;67.30;;;;;;4915068;29;20500;-55
2024/02/16 12:04:41;;;;;;;9.65;6.38;;;23.80;66.70;;;;;;4896068;29;20573;-53
2024/02/16 12:07:06;;;;;;;10.10;6.03;;;23.70;66.50;;;;;;4902230;29;20044;-55
2024/02/16 12:09:34;;;;;;;9.48;7.35;;;23.10;65.50;;;;;;4933692;29;20047;-59
2024/02/16 12:12:00;;;;;;;8.52;6.20;;;23.30;66.10;;;;;;4902895;29;20114;-58
2024/02/16 12:14:26;;;;;;;12.05;6.43;;;23.70;66.80;;;;;;4902358;29;20159;-57
2024/02/16 12:16:55;;;;;;;13.18;9.32;;;22.70;66.90;;;;;;4933819;29;20446;-61
2024/02/16 12:19:22;;;;;;;10.27;7.07;;;22.80;68.10;;;;;;4933880;29;20028;-58
2024/02/16 12:21:57;;;;;;;9.13;6.07;;;22.80;69.10;;;;;;4937681;28;20189;-58
2024/02/16 12:24:23;;;;;;;7.82;5.88;;;22.80;67.30;;;;;;4972243;28;20141;-56
2024/02/16 12:26:50;;;;;;;9.80;6.57;;;22.70;67.00;;;;;;4972211;28;20042;-56
2024/02/16 12:29:16;;;;;;;8.23;5.88;;;22.40;67.50;;;;;;4972334;28;20046;-55
2024/02/16 12:31:47;;;;;;;7.38;5.88;;;22.40;67.30;;;;;;4933739;29;20103;-60
2024/02/16 12:34:13;;;;;;;12.85;7.13;;;22.50;67.60;;;;;;4933908;29;20052;-60
2024/02/16 12:36:41;;;;;;;8.00;6.18;;;22.10;67.50;;;;;;4933802;29;20110;-55
2024/02/16 12:39:08;;;;;;;8.25;6.30;;;22.20;68.30;;;;;;4933431;29;20115;-55
2024/02/16 12:41:35;;;;;;;9.13;5.85;;;21.80;67.30;;;;;;4928694;29;20046;-56
2024/02/16 12:44:02;;;;;;;10.38;6.10;;;21.90;68.00;;;;;;4943590;29;20044;-54
2024/02/16 12:46:31;;;;;;;9.85;5.60;;;22.00;68.30;;;;;;4942851;29;20027;-56
2024/02/16 12:49:16;;;;;;;8.40;5.53;;;22.10;68.80;;;;;;4929605;29;20134;-55
2024/02/16 12:51:42;;;;;;;9.40;5.35;;;21.70;67.10;;;;;;4915540;29;20137;-59
2024/02/16 12:54:13;;;;;;;9.13;5.53;;;21.80;66.70;;;;;;4944947;29;20053;-55
2024/02/16 12:56:40;;;;;;;7.60;5.22;;;;;;;;;;4945898;29;20050;-59